sensor_id;sensor_type;location;lat;lon;timestamp;temperature;humidity
66871;DHT22;53780;44.998;9.926;2023-04-25T00:02:58;14.60;70.46
66871;DHT22;53780;44.998;9.926;2023-04-25T00:06:03;14.48;70.91
66871;DHT22;53780;44.998;9.926;2023-04-25T00:09:07;14.48;71.00
66871;DHT22;53780;44.998;9.926;2023-04-25T00:12:12;14.38;71.19
66871;DHT22;53780;44.998;9.926;2023-04-25T00:15:16;14.34;71.40
66871;DHT22;53780;44.998;9.926;2023-04-25T00:18:21;14.29;71.36
66871;DHT22;53780;44.998;9.926;2023-04-25T00:21:25;14.16;71.86
66871;DHT22;53780;44.998;9.926;2023-04-25T00:24:30;14.06;72.07
66871;DHT22;53780;44.998;9.926;2023-04-25T00:27:33;14.06;72.08
66871;DHT22;53780;44.998;9.926;2023-04-25T00:30:38;14.03;72.19
66871;DHT22;53780;44.998;9.926;2023-04-25T00:33:42;14.08;71.92
66871;DHT22;53780;44.998;9.926;2023-04-25T00:36:46;14.08;71.82
66871;DHT22;53780;44.998;9.926;2023-04-25T00:39:50;14.09;71.39
66871;DHT22;53780;44.998;9.926;2023-04-25T00:42:54;13.98;71.50
66871;DHT22;53780;44.998;9.926;2023-04-25T00:46:00;13.90;71.99
66871;DHT22;53780;44.998;9.926;2023-04-25T00:49:04;13.78;72.38
66871;DHT22;53780;44.998;9.926;2023-04-25T00:52:08;13.68;72.82
66871;DHT22;53780;44.998;9.926;2023-04-25T00:55:13;13.64;72.87
66871;DHT22;53780;44.998;9.926;2023-04-25T00:58:21;13.65;72.90
66871;DHT22;53780;44.998;9.926;2023-04-25T01:01:25;13.69;72.90
66871;DHT22;53780;44.998;9.926;2023-04-25T01:04:29;13.65;73.47
66871;DHT22;53780;44.998;9.926;2023-04-25T01:07:33;13.74;73.18
66871;DHT22;53780;44.998;9.926;2023-04-25T01:10:37;13.72;73.03
66871;DHT22;53780;44.998;9.926;2023-04-25T01:13:41;13.72;72.96
66871;DHT22;53780;44.998;9.926;2023-04-25T01:16:45;13.72;72.84
66871;DHT22;53780;44.998;9.926;2023-04-25T01:19:50;13.72;72.75
66871;DHT22;53780;44.998;9.926;2023-04-25T01:22:55;13.69;72.22
66871;DHT22;53780;44.998;9.926;2023-04-25T01:26:00;13.59;72.65
66871;DHT22;53780;44.998;9.926;2023-04-25T01:29:04;13.55;72.69
66871;DHT22;53780;44.998;9.926;2023-04-25T01:32:09;13.55;72.91
66871;DHT22;53780;44.998;9.926;2023-04-25T01:35:13;13.50;73.08
66871;DHT22;53780;44.998;9.926;2023-04-25T01:38:17;13.47;73.50
66871;DHT22;53780;44.998;9.926;2023-04-25T01:41:21;13.44;73.57
66871;DHT22;53780;44.998;9.926;2023-04-25T01:44:27;13.43;73.83
66871;DHT22;53780;44.998;9.926;2023-04-25T01:47:31;13.34;73.92
66871;DHT22;53780;44.998;9.926;2023-04-25T01:50:37;13.26;74.21
66871;DHT22;53780;44.998;9.926;2023-04-25T01:53:42;13.24;74.67
66871;DHT22;53780;44.998;9.926;2023-04-25T01:56:51;13.30;74.60
66871;DHT22;53780;44.998;9.926;2023-04-25T02:00:01;13.28;74.70
66871;DHT22;53780;44.998;9.926;2023-04-25T02:03:18;13.21;74.89
66871;DHT22;53780;44.998;9.926;2023-04-25T02:06:22;13.13;75.29
66871;DHT22;53780;44.998;9.926;2023-04-25T02:09:28;13.09;75.54
66871;DHT22;53780;44.998;9.926;2023-04-25T02:12:35;13.07;75.59
66871;DHT22;53780;44.998;9.926;2023-04-25T02:15:52;13.10;75.57
66871;DHT22;53780;44.998;9.926;2023-04-25T02:18:57;13.20;75.27
66871;DHT22;53780;44.998;9.926;2023-04-25T02:22:01;13.13;75.37
66871;DHT22;53780;44.998;9.926;2023-04-25T02:25:05;13.16;75.38
66871;DHT22;53780;44.998;9.926;2023-04-25T02:28:09;13.27;74.98
66871;DHT22;53780;44.998;9.926;2023-04-25T02:31:14;13.24;74.82
66871;DHT22;53780;44.998;9.926;2023-04-25T02:34:18;13.18;75.25
66871;DHT22;53780;44.998;9.926;2023-04-25T02:37:21;13.20;75.10
66871;DHT22;53780;44.998;9.926;2023-04-25T02:40:25;13.14;75.15
66871;DHT22;53780;44.998;9.926;2023-04-25T02:43:31;13.16;75.13
66871;DHT22;53780;44.998;9.926;2023-04-25T02:46:35;13.04;75.26
66871;DHT22;53780;44.998;9.926;2023-04-25T02:49:38;12.97;75.69
66871;DHT22;53780;44.998;9.926;2023-04-25T02:52:42;12.93;75.97
66871;DHT22;53780;44.998;9.926;2023-04-25T02:55:51;12.93;75.74
66871;DHT22;53780;44.998;9.926;2023-04-25T02:58:56;12.89;76.13
66871;DHT22;53780;44.998;9.926;2023-04-25T03:02:00;12.90;76.23
66871;DHT22;53780;44.998;9.926;2023-04-25T03:05:05;12.79;76.55
66871;DHT22;53780;44.998;9.926;2023-04-25T03:08:10;12.75;76.93
66871;DHT22;53780;44.998;9.926;2023-04-25T03:11:15;12.82;76.46
66871;DHT22;53780;44.998;9.926;2023-04-25T03:14:19;12.88;76.25
66871;DHT22;53780;44.998;9.926;2023-04-25T03:17:23;12.92;76.05
66871;DHT22;53780;44.998;9.926;2023-04-25T03:20:27;12.86;76.27
66871;DHT22;53780;44.998;9.926;2023-04-25T03:23:30;12.76;76.65
66871;DHT22;53780;44.998;9.926;2023-04-25T03:26:34;12.76;76.63
66871;DHT22;53780;44.998;9.926;2023-04-25T03:29:38;12.78;76.48
66871;DHT22;53780;44.998;9.926;2023-04-25T03:32:43;12.78;76.46
66871;DHT22;53780;44.998;9.926;2023-04-25T03:35:47;12.72;76.03
66871;DHT22;53780;44.998;9.926;2023-04-25T03:38:50;12.53;74.86
66871;DHT22;53780;44.998;9.926;2023-04-25T03:41:55;12.35;75.27
66871;DHT22;53780;44.998;9.926;2023-04-25T03:44:59;12.27;74.90
66871;DHT22;53780;44.998;9.926;2023-04-25T03:48:03;12.20;74.74
66871;DHT22;53780;44.998;9.926;2023-04-25T03:51:07;12.17;73.73
66871;DHT22;53780;44.998;9.926;2023-04-25T03:54:14;12.00;74.02
66871;DHT22;53780;44.998;9.926;2023-04-25T03:57:36;11.98;73.95
66871;DHT22;53780;44.998;9.926;2023-04-25T04:00:40;12.00;73.12
66871;DHT22;53780;44.998;9.926;2023-04-25T04:03:44;12.01;72.75
66871;DHT22;53780;44.998;9.926;2023-04-25T04:06:48;11.98;72.60
66871;DHT22;53780;44.998;9.926;2023-04-25T04:10:00;11.86;72.83
66871;DHT22;53780;44.998;9.926;2023-04-25T04:13:10;11.68;73.62
66871;DHT22;53780;44.998;9.926;2023-04-25T04:16:14;11.69;73.30
66871;DHT22;53780;44.998;9.926;2023-04-25T04:19:18;11.72;73.33
66871;DHT22;53780;44.998;9.926;2023-04-25T04:22:33;11.76;73.35
66871;DHT22;53780;44.998;9.926;2023-04-25T04:25:42;11.69;73.49
66871;DHT22;53780;44.998;9.926;2023-04-25T04:29:04;11.62;73.94
66871;DHT22;53780;44.998;9.926;2023-04-25T04:32:23;11.61;74.16
66871;DHT22;53780;44.998;9.926;2023-04-25T04:35:30;11.61;74.36
66871;DHT22;53780;44.998;9.926;2023-04-25T04:38:33;11.58;74.84
66871;DHT22;53780;44.998;9.926;2023-04-25T04:41:40;11.61;74.12
66871;DHT22;53780;44.998;9.926;2023-04-25T04:44:50;11.55;73.80
66871;DHT22;53780;44.998;9.926;2023-04-25T04:48:05;11.39;74.63
66871;DHT22;53780;44.998;9.926;2023-04-25T04:51:22;11.34;74.87
66871;DHT22;53780;44.998;9.926;2023-04-25T04:54:44;11.46;74.30
66871;DHT22;53780;44.998;9.926;2023-04-25T04:57:57;11.39;74.70
66871;DHT22;53780;44.998;9.926;2023-04-25T05:01:18;11.70;74.36
66871;DHT22;53780;44.998;9.926;2023-04-25T05:04:34;12.28;73.06
66871;DHT22;53780;44.998;9.926;2023-04-25T05:07:52;12.68;71.59
66871;DHT22;53780;44.998;9.926;2023-04-25T05:11:07;12.82;70.27
66871;DHT22;53780;44.998;9.926;2023-04-25T05:14:30;13.04;69.55
66871;DHT22;53780;44.998;9.926;2023-04-25T05:17:50;13.14;68.93
66871;DHT22;53780;44.998;9.926;2023-04-25T05:21:19;13.13;68.85
66871;DHT22;53780;44.998;9.926;2023-04-25T05:24:40;13.03;70.31
66871;DHT22;53780;44.998;9.926;2023-04-25T05:28:02;12.96;71.41
66871;DHT22;53780;44.998;9.926;2023-04-25T05:31:29;12.93;71.63
66871;DHT22;53780;44.998;9.926;2023-04-25T05:34:40;12.92;71.92
66871;DHT22;53780;44.998;9.926;2023-04-25T05:37:50;13.04;71.39
66871;DHT22;53780;44.998;9.926;2023-04-25T05:40:54;13.50;71.75
66871;DHT22;53780;44.998;9.926;2023-04-25T05:44:18;13.87;70.29
66871;DHT22;53780;44.998;9.926;2023-04-25T05:47:29;13.76;70.62
66871;DHT22;53780;44.998;9.926;2023-04-25T05:50:43;13.98;70.23
66871;DHT22;53780;44.998;9.926;2023-04-25T05:54:14;14.71;68.64
66871;DHT22;53780;44.998;9.926;2023-04-25T05:57:20;16.47;64.36
66871;DHT22;53780;44.998;9.926;2023-04-25T06:00:25;18.74;56.61
66871;DHT22;53780;44.998;9.926;2023-04-25T06:03:28;20.55;49.66
66871;DHT22;53780;44.998;9.926;2023-04-25T06:06:35;20.48;50.64
66871;DHT22;53780;44.998;9.926;2023-04-25T06:09:38;19.32;52.68
66871;DHT22;53780;44.998;9.926;2023-04-25T06:12:43;20.41;51.03
66871;DHT22;53780;44.998;9.926;2023-04-25T06:15:47;20.42;51.95
66871;DHT22;53780;44.998;9.926;2023-04-25T06:18:51;19.53;52.61
66871;DHT22;53780;44.998;9.926;2023-04-25T06:21:55;19.12;54.60
66871;DHT22;53780;44.998;9.926;2023-04-25T06:24:59;18.80;56.10
66871;DHT22;53780;44.998;9.926;2023-04-25T06:28:04;18.66;56.85
66871;DHT22;53780;44.998;9.926;2023-04-25T06:31:08;18.40;57.63
66871;DHT22;53780;44.998;9.926;2023-04-25T06:34:12;21.56;51.03
66871;DHT22;53780;44.998;9.926;2023-04-25T06:37:18;24.94;42.36
66871;DHT22;53780;44.998;9.926;2023-04-25T06:40:22;26.98;38.16
66871;DHT22;53780;44.998;9.926;2023-04-25T06:43:26;27.11;38.87
66871;DHT22;53780;44.998;9.926;2023-04-25T06:46:33;29.08;35.64
66871;DHT22;53780;44.998;9.926;2023-04-25T06:49:38;28.99;35.64
66871;DHT22;53780;44.998;9.926;2023-04-25T06:52:42;29.31;35.60
66871;DHT22;53780;44.998;9.926;2023-04-25T06:55:46;30.19;34.24
66871;DHT22;53780;44.998;9.926;2023-04-25T06:58:56;28.31;35.63
66871;DHT22;53780;44.998;9.926;2023-04-25T07:02:18;30.24;32.26
66871;DHT22;53780;44.998;9.926;2023-04-25T07:05:22;32.78;29.32
66871;DHT22;53780;44.998;9.926;2023-04-25T07:08:26;32.19;29.23
66871;DHT22;53780;44.998;9.926;2023-04-25T07:11:30;28.73;34.05
66871;DHT22;53780;44.998;9.926;2023-04-25T07:14:34;24.60;40.64
66871;DHT22;53780;44.998;9.926;2023-04-25T07:17:38;22.00;46.50
66871;DHT22;53780;44.998;9.926;2023-04-25T07:20:42;20.80;49.77
66871;DHT22;53780;44.998;9.926;2023-04-25T07:23:46;20.31;51.16
66871;DHT22;53780;44.998;9.926;2023-04-25T07:26:53;19.42;51.90
66871;DHT22;53780;44.998;9.926;2023-04-25T07:30:00;19.91;50.22
66871;DHT22;53780;44.998;9.926;2023-04-25T07:33:04;23.53;42.98
66871;DHT22;53780;44.998;9.926;2023-04-25T07:36:08;24.43;40.47
66871;DHT22;53780;44.998;9.926;2023-04-25T07:39:12;27.86;35.48
66871;DHT22;53780;44.998;9.926;2023-04-25T07:42:16;31.53;30.66
66871;DHT22;53780;44.998;9.926;2023-04-25T07:45:22;34.71;26.47
66871;DHT22;53780;44.998;9.926;2023-04-25T07:48:26;33.92;27.05
66871;DHT22;53780;44.998;9.926;2023-04-25T07:51:30;35.23;25.70
66871;DHT22;53780;44.998;9.926;2023-04-25T07:54:39;34.23;26.68
66871;DHT22;53780;44.998;9.926;2023-04-25T07:57:51;32.19;27.46
66871;DHT22;53780;44.998;9.926;2023-04-25T08:00:55;31.34;29.14
66871;DHT22;53780;44.998;9.926;2023-04-25T08:04:19;33.51;27.35
66871;DHT22;53780;44.998;9.926;2023-04-25T08:07:31;32.11;28.76
66871;DHT22;53780;44.998;9.926;2023-04-25T08:10:39;32.12;28.52
66871;DHT22;53780;44.998;9.926;2023-04-25T08:13:44;30.21;29.08
66871;DHT22;53780;44.998;9.926;2023-04-25T08:16:49;30.91;29.33
66871;DHT22;53780;44.998;9.926;2023-04-25T08:19:53;31.31;29.58
66871;DHT22;53780;44.998;9.926;2023-04-25T08:23:04;31.89;28.52
66871;DHT22;53780;44.998;9.926;2023-04-25T08:26:21;30.78;29.65
66871;DHT22;53780;44.998;9.926;2023-04-25T08:29:26;28.86;32.99
66871;DHT22;53780;44.998;9.926;2023-04-25T08:32:32;31.05;29.10
66871;DHT22;53780;44.998;9.926;2023-04-25T08:35:57;28.04;31.22
66871;DHT22;53780;44.998;9.926;2023-04-25T08:39:02;28.11;32.61
66871;DHT22;53780;44.998;9.926;2023-04-25T08:42:07;30.55;30.46
66871;DHT22;53780;44.998;9.926;2023-04-25T08:45:15;28.86;33.52
66871;DHT22;53780;44.998;9.926;2023-04-25T08:48:21;30.28;31.71
66871;DHT22;53780;44.998;9.926;2023-04-25T08:51:26;26.21;38.54
66871;DHT22;53780;44.998;9.926;2023-04-25T08:54:32;28.03;32.76
66871;DHT22;53780;44.998;9.926;2023-04-25T08:57:38;29.17;32.09
66871;DHT22;53780;44.998;9.926;2023-04-25T09:00:43;32.23;28.40
66871;DHT22;53780;44.998;9.926;2023-04-25T09:03:47;29.82;29.94
66871;DHT22;53780;44.998;9.926;2023-04-25T09:06:52;31.15;27.81
66871;DHT22;53780;44.998;9.926;2023-04-25T09:09:55;27.66;30.85
66871;DHT22;53780;44.998;9.926;2023-04-25T09:13:07;27.49;31.75
66871;DHT22;53780;44.998;9.926;2023-04-25T09:16:34;29.99;30.00
66871;DHT22;53780;44.998;9.926;2023-04-25T09:20:09;28.10;31.99
66871;DHT22;53780;44.998;9.926;2023-04-25T09:23:14;28.73;30.19
66871;DHT22;53780;44.998;9.926;2023-04-25T09:26:20;29.88;28.68
66871;DHT22;53780;44.998;9.926;2023-04-25T09:29:32;28.37;30.90
66871;DHT22;53780;44.998;9.926;2023-04-25T09:32:37;31.51;27.82
66871;DHT22;53780;44.998;9.926;2023-04-25T09:35:44;29.95;28.83
66871;DHT22;53780;44.998;9.926;2023-04-25T09:39:20;30.00;28.61
66871;DHT22;53780;44.998;9.926;2023-04-25T09:42:33;30.72;28.42
66871;DHT22;53780;44.998;9.926;2023-04-25T09:45:42;30.71;28.84
66871;DHT22;53780;44.998;9.926;2023-04-25T09:48:50;32.02;28.23
66871;DHT22;53780;44.998;9.926;2023-04-25T09:51:59;32.32;27.68
66871;DHT22;53780;44.998;9.926;2023-04-25T09:55:17;32.69;27.09
66871;DHT22;53780;44.998;9.926;2023-04-25T09:58:24;31.40;27.30
66871;DHT22;53780;44.998;9.926;2023-04-25T10:01:28;31.19;27.47
66871;DHT22;53780;44.998;9.926;2023-04-25T10:04:44;30.81;28.60
66871;DHT22;53780;44.998;9.926;2023-04-25T10:08:00;31.25;27.67
66871;DHT22;53780;44.998;9.926;2023-04-25T10:11:07;30.47;28.82
66871;DHT22;53780;44.998;9.926;2023-04-25T10:14:12;31.09;28.83
66871;DHT22;53780;44.998;9.926;2023-04-25T10:17:17;32.73;26.55
66871;DHT22;53780;44.998;9.926;2023-04-25T10:20:22;31.75;27.57
66871;DHT22;53780;44.998;9.926;2023-04-25T10:23:27;29.79;30.06
66871;DHT22;53780;44.998;9.926;2023-04-25T10:26:32;30.88;29.66
66871;DHT22;53780;44.998;9.926;2023-04-25T10:29:36;29.64;30.13
66871;DHT22;53780;44.998;9.926;2023-04-25T10:32:44;27.55;32.59
66871;DHT22;53780;44.998;9.926;2023-04-25T10:35:57;26.87;34.26
66871;DHT22;53780;44.998;9.926;2023-04-25T10:39:05;29.07;31.15
66871;DHT22;53780;44.998;9.926;2023-04-25T10:42:11;29.75;30.12
66871;DHT22;53780;44.998;9.926;2023-04-25T10:45:15;29.14;31.28
66871;DHT22;53780;44.998;9.926;2023-04-25T10:48:29;29.23;31.34
66871;DHT22;53780;44.998;9.926;2023-04-25T10:51:34;29.72;30.76
66871;DHT22;53780;44.998;9.926;2023-04-25T10:54:46;28.95;30.73
66871;DHT22;53780;44.998;9.926;2023-04-25T10:57:50;30.53;29.46
66871;DHT22;53780;44.998;9.926;2023-04-25T11:00:55;29.07;30.41
66871;DHT22;53780;44.998;9.926;2023-04-25T11:03:58;29.26;30.82
66871;DHT22;53780;44.998;9.926;2023-04-25T11:10:09;27.22;34.19
66871;DHT22;53780;44.998;9.926;2023-04-25T11:13:13;25.47;36.52
66871;DHT22;53780;44.998;9.926;2023-04-25T11:16:17;26.72;35.81
66871;DHT22;53780;44.998;9.926;2023-04-25T11:19:22;24.46;38.51
66871;DHT22;53780;44.998;9.926;2023-04-25T11:22:27;24.41;40.66
66871;DHT22;53780;44.998;9.926;2023-04-25T11:25:31;25.08;37.88
66871;DHT22;53780;44.998;9.926;2023-04-25T11:28:34;24.64;39.07
66871;DHT22;53780;44.998;9.926;2023-04-25T11:31:43;24.46;39.11
66871;DHT22;53780;44.998;9.926;2023-04-25T11:34:48;23.78;40.14
66871;DHT22;53780;44.998;9.926;2023-04-25T11:37:52;22.86;42.54
66871;DHT22;53780;44.998;9.926;2023-04-25T11:40:56;22.85;42.97
66871;DHT22;53780;44.998;9.926;2023-04-25T11:44:00;22.47;43.70
66871;DHT22;53780;44.998;9.926;2023-04-25T11:47:04;21.62;44.23
66871;DHT22;53780;44.998;9.926;2023-04-25T11:50:08;22.38;43.40
66871;DHT22;53780;44.998;9.926;2023-04-25T11:53:12;21.97;44.74
66871;DHT22;53780;44.998;9.926;2023-04-25T11:56:16;21.67;45.01
66871;DHT22;53780;44.998;9.926;2023-04-25T11:59:23;21.65;44.24
66871;DHT22;53780;44.998;9.926;2023-04-25T12:02:28;22.49;43.09
66871;DHT22;53780;44.998;9.926;2023-04-25T12:05:32;22.89;43.56
66871;DHT22;53780;44.998;9.926;2023-04-25T12:08:37;22.30;43.93
66871;DHT22;53780;44.998;9.926;2023-04-25T12:14:48;21.71;44.93
66871;DHT22;53780;44.998;9.926;2023-04-25T12:17:54;20.68;46.69
66871;DHT22;53780;44.998;9.926;2023-04-25T12:20:58;20.76;46.12
66871;DHT22;53780;44.998;9.926;2023-04-25T12:24:24;21.30;46.26
66871;DHT22;53780;44.998;9.926;2023-04-25T12:27:30;21.67;45.45
66871;DHT22;53780;44.998;9.926;2023-04-25T12:33:56;20.69;46.80
66871;DHT22;53780;44.998;9.926;2023-04-25T12:37:00;20.63;48.08
66871;DHT22;53780;44.998;9.926;2023-04-25T12:40:05;20.76;46.92
66871;DHT22;53780;44.998;9.926;2023-04-25T12:43:09;20.72;47.60
66871;DHT22;53780;44.998;9.926;2023-04-25T12:46:13;21.01;47.45
66871;DHT22;53780;44.998;9.926;2023-04-25T12:49:17;20.35;48.53
66871;DHT22;53780;44.998;9.926;2023-04-25T12:52:21;20.28;49.27
66871;DHT22;53780;44.998;9.926;2023-04-25T12:55:25;20.44;49.07
66871;DHT22;53780;44.998;9.926;2023-04-25T12:58:29;20.66;48.80
66871;DHT22;53780;44.998;9.926;2023-04-25T13:01:33;20.46;49.17
66871;DHT22;53780;44.998;9.926;2023-04-25T13:04:37;20.63;50.67
66871;DHT22;53780;44.998;9.926;2023-04-25T13:07:42;20.48;48.84
66871;DHT22;53780;44.998;9.926;2023-04-25T13:10:47;20.38;48.99
66871;DHT22;53780;44.998;9.926;2023-04-25T13:13:51;20.36;47.96
66871;DHT22;53780;44.998;9.926;2023-04-25T13:16:55;20.53;48.85
66871;DHT22;53780;44.998;9.926;2023-04-25T13:19:59;20.34;49.77
66871;DHT22;53780;44.998;9.926;2023-04-25T13:23:03;20.61;50.46
66871;DHT22;53780;44.998;9.926;2023-04-25T13:26:07;20.63;49.14
66871;DHT22;53780;44.998;9.926;2023-04-25T13:29:10;20.41;47.99
66871;DHT22;53780;44.998;9.926;2023-04-25T13:32:14;20.65;48.09
66871;DHT22;53780;44.998;9.926;2023-04-25T13:35:18;20.82;47.28
66871;DHT22;53780;44.998;9.926;2023-04-25T13:38:23;20.48;49.26
66871;DHT22;53780;44.998;9.926;2023-04-25T13:41:27;20.94;50.30
66871;DHT22;53780;44.998;9.926;2023-04-25T13:44:31;21.15;47.50
66871;DHT22;53780;44.998;9.926;2023-04-25T13:47:34;21.41;46.88
66871;DHT22;53780;44.998;9.926;2023-04-25T13:50:38;21.63;46.83
66871;DHT22;53780;44.998;9.926;2023-04-25T13:53:42;21.48;46.71
66871;DHT22;53780;44.998;9.926;2023-04-25T13:56:45;21.59;45.82
66871;DHT22;53780;44.998;9.926;2023-04-25T13:59:50;21.58;45.78
66871;DHT22;53780;44.998;9.926;2023-04-25T14:02:54;21.66;46.37
66871;DHT22;53780;44.998;9.926;2023-04-25T14:05:59;21.71;45.31
66871;DHT22;53780;44.998;9.926;2023-04-25T14:09:02;21.66;46.44
66871;DHT22;53780;44.998;9.926;2023-04-25T14:12:08;21.27;45.76
66871;DHT22;53780;44.998;9.926;2023-04-25T14:15:11;21.63;45.32
66871;DHT22;53780;44.998;9.926;2023-04-25T14:18:15;20.99;46.95
66871;DHT22;53780;44.998;9.926;2023-04-25T14:21:19;21.08;46.50
66871;DHT22;53780;44.998;9.926;2023-04-25T14:24:24;20.59;47.61
66871;DHT22;53780;44.998;9.926;2023-04-25T14:27:28;20.80;46.58
66871;DHT22;53780;44.998;9.926;2023-04-25T14:30:32;20.63;46.13
66871;DHT22;53780;44.998;9.926;2023-04-25T14:33:36;20.77;46.68
66871;DHT22;53780;44.998;9.926;2023-04-25T14:36:43;20.57;47.89
66871;DHT22;53780;44.998;9.926;2023-04-25T14:39:47;20.56;47.87
66871;DHT22;53780;44.998;9.926;2023-04-25T14:42:51;20.63;47.10
66871;DHT22;53780;44.998;9.926;2023-04-25T14:45:55;20.97;48.76
66871;DHT22;53780;44.998;9.926;2023-04-25T14:48:59;20.04;44.56
66871;DHT22;53780;44.998;9.926;2023-04-25T14:52:03;19.52;46.67
66871;DHT22;53780;44.998;9.926;2023-04-25T14:55:08;19.04;46.71
66871;DHT22;53780;44.998;9.926;2023-04-25T14:58:12;18.84;47.27
66871;DHT22;53780;44.998;9.926;2023-04-25T15:01:16;18.61;48.02
66871;DHT22;53780;44.998;9.926;2023-04-25T15:04:20;18.48;49.34
66871;DHT22;53780;44.998;9.926;2023-04-25T15:07:24;18.55;54.41
66871;DHT22;53780;44.998;9.926;2023-04-25T15:10:28;18.49;60.22
66871;DHT22;53780;44.998;9.926;2023-04-25T15:13:32;18.61;54.34
66871;DHT22;53780;44.998;9.926;2023-04-25T15:16:36;19.19;51.65
66871;DHT22;53780;44.998;9.926;2023-04-25T15:19:40;18.28;58.41
66871;DHT22;53780;44.998;9.926;2023-04-25T15:22:44;17.39;60.25
66871;DHT22;53780;44.998;9.926;2023-04-25T15:25:52;17.35;59.27
66871;DHT22;53780;44.998;9.926;2023-04-25T15:28:56;16.94;64.30
66871;DHT22;53780;44.998;9.926;2023-04-25T15:32:00;16.17;67.96
66871;DHT22;53780;44.998;9.926;2023-04-25T15:35:05;15.88;71.71
66871;DHT22;53780;44.998;9.926;2023-04-25T15:38:10;15.81;72.39
66871;DHT22;53780;44.998;9.926;2023-04-25T15:41:14;15.70;72.43
66871;DHT22;53780;44.998;9.926;2023-04-25T15:44:18;15.57;70.26
66871;DHT22;53780;44.998;9.926;2023-04-25T15:47:22;15.36;69.71
66871;DHT22;53780;44.998;9.926;2023-04-25T15:50:27;15.05;69.72
66871;DHT22;53780;44.998;9.926;2023-04-25T15:53:31;15.22;70.35
66871;DHT22;53780;44.998;9.926;2023-04-25T15:56:35;14.78;70.76
66871;DHT22;53780;44.998;9.926;2023-04-25T15:59:39;14.74;70.91
66871;DHT22;53780;44.998;9.926;2023-04-25T16:02:44;14.67;70.08
66871;DHT22;53780;44.998;9.926;2023-04-25T16:05:48;14.79;71.32
66871;DHT22;53780;44.998;9.926;2023-04-25T16:08:53;15.02;70.15
66871;DHT22;53780;44.998;9.926;2023-04-25T16:11:58;15.13;70.03
66871;DHT22;53780;44.998;9.926;2023-04-25T16:15:02;15.09;69.41
66871;DHT22;53780;44.998;9.926;2023-04-25T16:18:06;14.69;70.21
66871;DHT22;53780;44.998;9.926;2023-04-25T16:21:10;14.96;69.98
66871;DHT22;53780;44.998;9.926;2023-04-25T16:24:18;14.95;69.84
66871;DHT22;53780;44.998;9.926;2023-04-25T16:27:22;14.85;70.57
66871;DHT22;53780;44.998;9.926;2023-04-25T16:30:26;14.49;70.26
66871;DHT22;53780;44.998;9.926;2023-04-25T16:33:30;14.79;68.95
66871;DHT22;53780;44.998;9.926;2023-04-25T16:36:34;14.27;68.91
66871;DHT22;53780;44.998;9.926;2023-04-25T16:39:38;14.23;68.76
66871;DHT22;53780;44.998;9.926;2023-04-25T16:42:42;14.45;68.98
66871;DHT22;53780;44.998;9.926;2023-04-25T16:45:46;14.14;70.06
66871;DHT22;53780;44.998;9.926;2023-04-25T16:48:50;14.19;70.27
66871;DHT22;53780;44.998;9.926;2023-04-25T16:51:55;14.13;70.55
66871;DHT22;53780;44.998;9.926;2023-04-25T16:54:59;14.06;71.40
66871;DHT22;53780;44.998;9.926;2023-04-25T16:58:03;14.16;71.23
66871;DHT22;53780;44.998;9.926;2023-04-25T17:01:07;14.29;71.17
66871;DHT22;53780;44.998;9.926;2023-04-25T17:04:11;14.40;71.16
66871;DHT22;53780;44.998;9.926;2023-04-25T17:07:15;14.19;72.27
66871;DHT22;53780;44.998;9.926;2023-04-25T17:10:20;14.05;72.87
66871;DHT22;53780;44.998;9.926;2023-04-25T17:13:24;14.10;72.79
66871;DHT22;53780;44.998;9.926;2023-04-25T17:16:35;14.13;73.51
66871;DHT22;53780;44.998;9.926;2023-04-25T17:19:39;14.29;72.67
66871;DHT22;53780;44.998;9.926;2023-04-25T17:22:43;14.44;72.26
66871;DHT22;53780;44.998;9.926;2023-04-25T17:25:48;14.38;72.19
66871;DHT22;53780;44.998;9.926;2023-04-25T17:28:54;14.40;72.52
66871;DHT22;53780;44.998;9.926;2023-04-25T17:31:58;14.63;71.30
66871;DHT22;53780;44.998;9.926;2023-04-25T17:35:03;14.26;72.57
66871;DHT22;53780;44.998;9.926;2023-04-25T17:38:07;14.24;72.65
66871;DHT22;53780;44.998;9.926;2023-04-25T17:41:11;14.37;72.76
66871;DHT22;53780;44.998;9.926;2023-04-25T17:44:17;14.36;72.17
66871;DHT22;53780;44.998;9.926;2023-04-25T17:47:22;14.36;72.26
66871;DHT22;53780;44.998;9.926;2023-04-25T17:50:25;14.13;71.92
66871;DHT22;53780;44.998;9.926;2023-04-25T17:53:29;14.21;71.24
66871;DHT22;53780;44.998;9.926;2023-04-25T17:56:36;13.86;71.62
66871;DHT22;53780;44.998;9.926;2023-04-25T17:59:41;13.66;72.71
66871;DHT22;53780;44.998;9.926;2023-04-25T18:02:45;13.72;72.62
66871;DHT22;53780;44.998;9.926;2023-04-25T18:05:53;13.71;72.98
66871;DHT22;53780;44.998;9.926;2023-04-25T18:08:59;13.79;72.83
66871;DHT22;53780;44.998;9.926;2023-04-25T18:12:03;13.65;73.33
66871;DHT22;53780;44.998;9.926;2023-04-25T18:15:07;13.64;73.76
66871;DHT22;53780;44.998;9.926;2023-04-25T18:18:11;13.58;74.00
66871;DHT22;53780;44.998;9.926;2023-04-25T18:21:22;13.40;74.87
66871;DHT22;53780;44.998;9.926;2023-04-25T18:24:27;13.38;75.32
66871;DHT22;53780;44.998;9.926;2023-04-25T18:27:30;13.31;75.68
66871;DHT22;53780;44.998;9.926;2023-04-25T18:30:35;13.16;75.99
66871;DHT22;53780;44.998;9.926;2023-04-25T18:33:40;13.30;75.59
66871;DHT22;53780;44.998;9.926;2023-04-25T18:36:44;13.31;75.70
66871;DHT22;53780;44.998;9.926;2023-04-25T18:39:49;13.26;77.27
66871;DHT22;53780;44.998;9.926;2023-04-25T18:42:53;13.28;75.95
66871;DHT22;53780;44.998;9.926;2023-04-25T18:45:56;13.40;75.46
66871;DHT22;53780;44.998;9.926;2023-04-25T18:49:00;13.48;75.30
66871;DHT22;53780;44.998;9.926;2023-04-25T18:52:06;13.54;74.87
66871;DHT22;53780;44.998;9.926;2023-04-25T18:55:13;13.59;74.26
66871;DHT22;53780;44.998;9.926;2023-04-25T18:58:16;13.55;74.00
66871;DHT22;53780;44.998;9.926;2023-04-25T19:01:24;13.57;74.04
66871;DHT22;53780;44.998;9.926;2023-04-25T19:04:28;13.51;74.15
66871;DHT22;53780;44.998;9.926;2023-04-25T19:07:32;13.47;74.35
66871;DHT22;53780;44.998;9.926;2023-04-25T19:10:36;13.48;74.50
66871;DHT22;53780;44.998;9.926;2023-04-25T19:13:39;13.48;74.43
66871;DHT22;53780;44.998;9.926;2023-04-25T19:16:43;13.47;74.30
66871;DHT22;53780;44.998;9.926;2023-04-25T19:19:47;13.40;74.63
66871;DHT22;53780;44.998;9.926;2023-04-25T19:22:51;13.34;75.19
66871;DHT22;53780;44.998;9.926;2023-04-25T19:25:55;13.36;75.26
66871;DHT22;53780;44.998;9.926;2023-04-25T19:29:05;13.27;75.65
66871;DHT22;53780;44.998;9.926;2023-04-25T19:32:09;13.28;75.65
66871;DHT22;53780;44.998;9.926;2023-04-25T19:35:13;13.28;75.73
66871;DHT22;53780;44.998;9.926;2023-04-25T19:38:18;13.27;75.71
66871;DHT22;53780;44.998;9.926;2023-04-25T19:41:22;13.26;75.91
66871;DHT22;53780;44.998;9.926;2023-04-25T19:44:25;13.23;76.04
66871;DHT22;53780;44.998;9.926;2023-04-25T19:47:30;13.26;76.07